createdAt,value
2023-03-10T00:00:21.794Z,3.93
2023-03-10T00:02:48.934Z,4.43
2023-03-10T00:05:17.746Z,4.30
2023-03-10T00:07:44.895Z,4.03
2023-03-10T00:10:12.537Z,3.97
2023-03-10T00:12:39.670Z,4.43
2023-03-10T00:15:07.775Z,3.60
2023-03-10T00:17:34.857Z,3.53
2023-03-10T00:20:01.980Z,2.97
2023-03-10T00:22:30.376Z,2.73
2023-03-10T00:24:57.579Z,2.90
2023-03-10T00:27:24.625Z,2.93
2023-03-10T00:29:52.173Z,3.53
2023-03-10T00:32:19.285Z,2.30
2023-03-10T00:34:46.359Z,2.20
2023-03-10T00:37:13.462Z,2.13
2023-03-10T00:39:41.891Z,2.17
2023-03-10T00:42:08.983Z,1.53
2023-03-10T00:44:36.096Z,2.17
2023-03-10T00:47:03.245Z,1.90
2023-03-10T00:49:30.286Z,1.80
2023-03-10T00:51:57.367Z,1.83
2023-03-10T00:54:24.431Z,1.50
2023-03-10T00:56:52.925Z,1.70
2023-03-10T00:59:20.093Z,1.80
2023-03-10T01:01:47.555Z,1.70
2023-03-10T01:04:16.008Z,1.47
2023-03-10T01:06:43.165Z,1.93
2023-03-10T01:09:10.704Z,3.63
2023-03-10T01:11:37.840Z,3.40
2023-03-10T01:14:07.434Z,4.80
2023-03-10T01:16:34.868Z,5.03
2023-03-10T01:19:02.022Z,3.63
2023-03-10T01:21:30.092Z,3.53
2023-03-10T01:23:57.612Z,3.70
2023-03-10T01:26:24.710Z,3.43
2023-03-10T01:28:51.826Z,3.97
2023-03-10T01:31:20.682Z,2.80
2023-03-10T01:33:47.820Z,2.83
2023-03-10T01:36:15.931Z,3.00
2023-03-10T01:38:46.246Z,2.80
2023-03-10T01:41:14.168Z,3.00
2023-03-10T01:43:41.953Z,3.07
2023-03-10T01:46:30.295Z,3.17
2023-03-10T01:49:04.468Z,2.60
2023-03-10T01:51:33.537Z,4.10
2023-03-10T01:54:01.279Z,2.90
2023-03-10T01:56:28.396Z,4.40
2023-03-10T01:58:55.559Z,5.60
2023-03-10T02:01:22.704Z,3.80
2023-03-10T02:03:52.730Z,6.10
2023-03-10T02:06:21.960Z,3.47
2023-03-10T02:08:52.896Z,3.60
2023-03-10T02:11:20.343Z,3.10
2023-03-10T02:13:47.419Z,3.80
2023-03-10T02:16:15.376Z,2.73
2023-03-10T02:18:44.410Z,3.30
2023-03-10T02:21:13.405Z,2.50
2023-03-10T02:23:58.805Z,3.10
2023-03-10T02:26:34.256Z,2.90
2023-03-10T02:29:04.145Z,3.40
2023-03-10T02:31:32.116Z,2.23
2023-03-10T02:33:59.791Z,2.60
2023-03-10T02:36:27.054Z,2.73
2023-03-10T02:38:54.121Z,1.70
2023-03-10T02:41:22.671Z,3.33
2023-03-10T02:43:50.307Z,3.13
2023-03-10T02:46:26.738Z,2.03
2023-03-10T02:48:53.815Z,2.50
2023-03-10T02:51:28.068Z,2.90
2023-03-10T02:53:57.778Z,3.27
2023-03-10T02:56:25.890Z,2.57
2023-03-10T02:58:53.706Z,2.23
2023-03-10T03:01:21.136Z,1.90
2023-03-10T03:03:50.043Z,1.90
2023-03-10T03:06:17.158Z,2.67
2023-03-10T03:08:45.414Z,2.20
2023-03-10T03:11:16.038Z,2.23
2023-03-10T03:13:43.549Z,1.90
2023-03-10T03:16:11.717Z,1.70
2023-03-10T03:18:39.862Z,1.93
2023-03-10T03:21:11.427Z,1.50
2023-03-10T03:23:39.606Z,1.40
2023-03-10T03:26:14.119Z,1.63
2023-03-10T03:28:41.613Z,2.00
2023-03-10T03:31:13.820Z,1.60
2023-03-10T03:33:40.958Z,2.03
2023-03-10T03:36:10.807Z,1.43
2023-03-10T03:38:37.937Z,1.53
2023-03-10T03:41:05.578Z,1.60
2023-03-10T03:43:32.801Z,2.00
2023-03-10T03:46:00.973Z,1.93
2023-03-10T03:48:28.428Z,2.17
2023-03-10T03:50:55.516Z,2.00
2023-03-10T03:53:33.656Z,1.87
2023-03-10T03:56:01.007Z,2.30
2023-03-10T03:58:32.173Z,2.70
2023-03-10T04:00:59.296Z,2.40
2023-03-10T04:03:29.386Z,2.23
2023-03-10T04:05:57.046Z,2.50
2023-03-10T04:08:24.157Z,2.53
2023-03-10T04:10:53.599Z,1.90
2023-03-10T04:13:22.611Z,1.97
2023-03-10T04:15:55.166Z,3.40
2023-03-10T04:18:22.302Z,2.13
2023-03-10T04:20:49.762Z,2.13
2023-03-10T04:23:17.154Z,1.87
2023-03-10T04:25:44.651Z,2.60
2023-03-10T04:28:13.968Z,2.03
2023-03-10T04:30:42.184Z,2.00
2023-03-10T04:33:10.402Z,2.10
2023-03-10T04:35:40.081Z,1.90
2023-03-10T04:38:07.489Z,2.00
2023-03-10T04:40:35.093Z,2.03
2023-03-10T04:43:02.394Z,2.40
2023-03-10T04:45:31.803Z,2.10
2023-03-10T04:47:59.006Z,1.83
2023-03-10T04:50:26.342Z,2.53
2023-03-10T04:52:54.222Z,3.00
2023-03-10T04:55:25.685Z,4.40
2023-03-10T04:57:53.169Z,2.60
2023-03-10T05:00:20.457Z,2.33
2023-03-10T05:02:49.814Z,2.87
2023-03-10T05:05:17.215Z,2.40
2023-03-10T05:07:46.129Z,2.80
2023-03-10T05:10:13.440Z,2.80
2023-03-10T05:12:40.626Z,2.83
2023-03-10T05:15:08.399Z,3.00
2023-03-10T05:17:35.763Z,2.70
2023-03-10T05:20:05.679Z,2.43
2023-03-10T05:22:32.877Z,3.07
2023-03-10T05:25:00.166Z,2.20
2023-03-10T05:27:27.245Z,2.90
2023-03-10T05:29:54.730Z,2.53
2023-03-10T05:32:25.448Z,2.50
2023-03-10T05:34:53.142Z,2.57
2023-03-10T05:37:21.615Z,2.97
2023-03-10T05:39:48.757Z,2.90
2023-03-10T05:42:20.233Z,2.60
2023-03-10T05:44:47.563Z,3.00
2023-03-10T05:47:14.822Z,3.03
2023-03-10T05:49:41.925Z,3.40
2023-03-10T05:52:09.313Z,3.00
2023-03-10T05:54:39.321Z,2.87
2023-03-10T05:57:06.725Z,2.80
2023-03-10T05:59:33.924Z,2.50
2023-03-10T06:02:01.080Z,3.77
2023-03-10T06:04:28.194Z,2.93
2023-03-10T06:06:55.415Z,2.93
2023-03-10T06:09:22.468Z,2.93
2023-03-10T06:11:50.883Z,2.20
2023-03-10T06:14:17.999Z,2.97
2023-03-10T06:16:45.156Z,3.37
2023-03-10T06:19:12.246Z,2.60
2023-03-10T06:21:39.387Z,2.83
2023-03-10T06:24:06.612Z,3.93
2023-03-10T06:26:33.753Z,3.80
2023-03-10T06:29:02.185Z,2.53
2023-03-10T06:31:29.434Z,2.60
2023-03-10T06:33:56.536Z,3.13
2023-03-10T06:36:24.112Z,3.57
2023-03-10T06:38:51.154Z,3.20
2023-03-10T06:41:18.290Z,2.70
2023-03-10T06:43:45.657Z,3.57
2023-03-10T06:46:14.624Z,3.30
2023-03-10T06:48:42.334Z,3.20
2023-03-10T06:51:09.880Z,3.90
2023-03-10T06:53:37.014Z,3.40
2023-03-10T06:56:05.304Z,2.47
2023-03-10T06:58:32.920Z,3.20
2023-03-10T07:01:00.182Z,3.73
2023-03-10T07:03:28.837Z,4.40
2023-03-10T07:05:55.951Z,3.13
2023-03-10T07:08:23.014Z,3.10
2023-03-10T07:10:51.686Z,3.33
2023-03-10T07:13:18.963Z,3.03
2023-03-10T07:15:46.763Z,3.63
2023-03-10T07:18:13.982Z,4.33
2023-03-10T07:20:43.723Z,3.83
2023-03-10T07:23:10.822Z,3.43
2023-03-10T07:25:38.429Z,3.23
2023-03-10T07:28:06.125Z,3.10
2023-03-10T07:30:33.348Z,4.37
2023-03-10T07:33:00.482Z,3.10
2023-03-10T07:35:27.672Z,2.70
2023-03-10T07:37:56.133Z,2.97
2023-03-10T07:40:23.292Z,2.60
2023-03-10T07:42:50.396Z,2.60
2023-03-10T07:45:17.597Z,3.33
2023-03-10T07:47:44.656Z,2.53
2023-03-10T07:50:12.143Z,3.87
2023-03-10T07:52:39.402Z,2.33
2023-03-10T07:55:08.506Z,2.67
2023-03-10T07:57:35.904Z,2.83
2023-03-10T08:00:03.516Z,2.80
2023-03-10T08:02:39.495Z,2.30
2023-03-10T08:05:07.181Z,2.53
2023-03-10T08:07:35.698Z,3.50
2023-03-10T08:10:03.021Z,3.17
2023-03-10T08:12:31.406Z,2.53
2023-03-10T08:14:58.623Z,2.80
2023-03-10T08:17:25.676Z,3.10
2023-03-10T08:19:52.853Z,3.27
2023-03-10T08:22:22.516Z,3.17
2023-03-10T08:24:49.712Z,3.10
2023-03-10T08:27:16.885Z,3.10
2023-03-10T08:29:45.373Z,2.50
2023-03-10T08:32:12.527Z,3.43
2023-03-10T08:34:39.847Z,2.60
2023-03-10T08:37:07.304Z,2.77
2023-03-10T08:39:34.422Z,2.50
2023-03-10T08:42:02.996Z,2.67
2023-03-10T08:44:30.117Z,2.43
2023-03-10T08:46:58.670Z,2.20
2023-03-10T08:49:25.801Z,2.43
2023-03-10T08:51:52.934Z,2.30
2023-03-10T08:54:21.255Z,2.43
2023-03-10T08:56:48.745Z,2.10
2023-03-10T08:59:15.998Z,2.00
2023-03-10T09:01:43.151Z,2.83
2023-03-10T09:04:11.668Z,2.10
2023-03-10T09:06:39.205Z,3.17
2023-03-10T09:09:09.012Z,3.03
2023-03-10T09:11:39.044Z,2.83
2023-03-10T09:14:07.135Z,2.60
2023-03-10T09:16:34.681Z,2.33
2023-03-10T09:19:01.830Z,2.47
2023-03-10T09:21:33.382Z,3.20
2023-03-10T09:24:00.794Z,2.43
2023-03-10T09:26:27.890Z,2.80
2023-03-10T09:28:56.954Z,2.50
2023-03-10T09:31:25.980Z,2.80
2023-03-10T09:33:53.145Z,3.33
2023-03-10T09:36:20.289Z,2.60
2023-03-10T09:38:48.756Z,2.80
2023-03-10T09:41:26.800Z,2.80
2023-03-10T09:43:56.711Z,2.50
2023-03-10T09:46:26.247Z,2.63
2023-03-10T09:48:56.646Z,2.93
2023-03-10T09:51:25.118Z,2.40
2023-03-10T09:53:59.377Z,2.90
2023-03-10T09:56:29.962Z,2.63
2023-03-10T09:58:58.199Z,3.67
2023-03-10T10:01:27.379Z,3.03
2023-03-10T10:03:55.280Z,3.20
2023-03-10T10:06:24.700Z,2.97
2023-03-10T10:09:04.272Z,2.67
2023-03-10T10:11:33.524Z,3.20
2023-03-10T10:14:15.886Z,2.50
2023-03-10T10:16:48.723Z,3.20
2023-03-10T10:19:18.461Z,2.47
2023-03-10T10:21:48.742Z,2.90
2023-03-10T10:24:18.149Z,2.40
2023-03-10T10:26:46.544Z,3.10
2023-03-10T10:29:15.353Z,2.50
2023-03-10T10:31:42.487Z,3.47
2023-03-10T10:34:19.818Z,2.50
2023-03-10T10:36:49.766Z,2.90
2023-03-10T10:39:25.288Z,2.70
2023-03-10T10:41:55.247Z,2.23
2023-03-10T10:44:22.337Z,3.57
2023-03-10T10:46:53.381Z,2.40
2023-03-10T10:49:22.533Z,2.20
2023-03-10T10:51:59.813Z,2.40
2023-03-10T10:54:28.309Z,2.20
2023-03-10T10:56:57.749Z,2.53
2023-03-10T10:59:28.280Z,2.10
2023-03-10T11:01:56.062Z,1.90
2023-03-10T11:04:23.839Z,1.70
2023-03-10T11:06:51.383Z,2.70
2023-03-10T11:09:19.293Z,2.03
2023-03-10T11:11:49.518Z,1.83
2023-03-10T11:14:42.583Z,1.90
2023-03-10T11:17:13.192Z,2.30
2023-03-10T11:19:48.720Z,2.07
2023-03-10T11:22:22.065Z,2.13
2023-03-10T11:24:51.936Z,1.80
2023-03-10T11:27:23.383Z,1.90
2023-03-10T11:29:57.115Z,2.07
2023-03-10T11:32:27.457Z,1.80
2023-03-10T11:34:55.216Z,2.33
2023-03-10T11:37:25.103Z,2.90
2023-03-10T11:39:55.292Z,3.70
2023-03-10T11:42:26.267Z,2.53
2023-03-10T11:45:03.405Z,2.70
2023-03-10T11:47:36.983Z,2.93
2023-03-10T11:50:09.258Z,2.53
2023-03-10T11:52:37.633Z,2.70
2023-03-10T11:55:06.364Z,2.67
2023-03-10T11:57:35.853Z,2.17
2023-03-10T12:00:06.641Z,2.93
2023-03-10T12:02:35.407Z,2.50
2023-03-10T12:05:04.840Z,1.90
2023-03-10T12:07:34.732Z,2.27
2023-03-10T12:10:04.647Z,2.57
2023-03-10T12:12:32.878Z,1.73
2023-03-10T12:15:00.983Z,1.57
2023-03-10T12:17:29.770Z,1.20
2023-03-10T12:20:23.383Z,1.80
2023-03-10T12:22:51.797Z,1.70
2023-03-10T12:25:37.693Z,1.50
2023-03-10T12:28:20.455Z,1.90
2023-03-10T12:30:48.528Z,1.93
2023-03-10T12:33:34.444Z,2.03
2023-03-10T12:36:04.097Z,2.30
2023-03-10T12:38:34.482Z,1.80
2023-03-10T12:41:01.752Z,2.77
2023-03-10T12:44:02.336Z,1.47
2023-03-10T12:46:39.120Z,1.60
2023-03-10T12:49:21.073Z,1.97
2023-03-10T12:51:52.587Z,1.10
2023-03-10T12:54:43.537Z,1.20
2023-03-10T12:57:16.540Z,1.43
2023-03-10T12:59:48.800Z,1.50
2023-03-10T13:02:24.420Z,1.47
2023-03-10T13:04:52.108Z,1.97
2023-03-10T13:07:20.534Z,1.10
2023-03-10T13:09:48.402Z,1.57
2023-03-10T13:12:17.806Z,1.30
2023-03-10T13:14:45.927Z,1.53
2023-03-10T13:17:23.160Z,2.13
2023-03-10T13:20:01.289Z,1.83
2023-03-10T13:22:29.781Z,1.93
2023-03-10T13:24:57.772Z,1.43
2023-03-10T13:27:28.134Z,1.60
2023-03-10T13:29:56.177Z,2.17
2023-03-10T13:32:24.038Z,2.00
2023-03-10T13:34:51.269Z,1.90
2023-03-10T13:37:18.535Z,1.83
2023-03-10T13:39:47.010Z,1.97
2023-03-10T13:42:37.191Z,2.07
2023-03-10T13:45:14.226Z,1.93
2023-03-10T13:47:42.592Z,1.70
2023-03-10T13:50:13.510Z,2.07
2023-03-10T13:52:51.626Z,1.40
2023-03-10T13:55:20.176Z,1.70
2023-03-10T13:57:48.760Z,2.27
2023-03-10T14:00:17.450Z,2.27
2023-03-10T14:02:44.892Z,1.83
2023-03-10T14:05:27.055Z,1.80
2023-03-10T14:07:59.448Z,1.87
2023-03-10T14:10:28.213Z,1.50
2023-03-10T14:12:55.419Z,1.53
2023-03-10T14:15:23.744Z,1.73
2023-03-10T14:17:51.350Z,1.87
2023-03-10T14:20:26.660Z,1.53
2023-03-10T14:22:53.810Z,1.60
2023-03-10T14:25:22.132Z,1.80
2023-03-10T14:27:52.855Z,1.80
2023-03-10T14:30:22.764Z,2.47
2023-03-10T14:32:50.210Z,1.60
2023-03-10T14:35:18.368Z,1.57
2023-03-10T14:37:45.450Z,2.23
2023-03-10T14:40:12.793Z,1.57
2023-03-10T14:42:40.327Z,1.80
2023-03-10T14:45:14.875Z,1.67
2023-03-10T14:47:42.270Z,1.97
2023-03-10T14:50:13.325Z,1.80
2023-03-10T14:52:40.543Z,1.97
2023-03-10T14:55:09.375Z,2.10
2023-03-10T14:57:36.898Z,1.80
2023-03-10T15:00:04.515Z,1.93
2023-03-10T15:02:33.151Z,1.77
2023-03-10T15:05:00.399Z,1.17
2023-03-10T15:07:27.512Z,1.80
2023-03-10T15:10:08.894Z,2.00
2023-03-10T15:12:37.604Z,2.20
2023-03-10T15:15:05.138Z,2.10
2023-03-10T15:17:33.622Z,1.93
2023-03-10T15:20:00.727Z,1.70
2023-03-10T15:22:27.774Z,2.20
2023-03-10T15:24:54.864Z,2.10
2023-03-10T15:27:21.964Z,2.20
2023-03-10T15:29:49.060Z,2.80
2023-03-10T15:32:16.174Z,2.40
2023-03-10T15:34:44.615Z,2.50
2023-03-10T15:37:11.656Z,2.13
2023-03-10T15:39:38.719Z,2.30
2023-03-10T15:42:05.907Z,3.03
2023-03-10T15:44:32.961Z,3.00
2023-03-10T15:47:00.170Z,2.30
2023-03-10T15:49:27.443Z,2.40
2023-03-10T15:51:55.868Z,2.93
2023-03-10T15:54:22.886Z,2.30
2023-03-10T15:56:50.013Z,2.50
2023-03-10T15:59:18.416Z,2.40
2023-03-10T16:01:45.527Z,2.90
2023-03-10T16:04:12.666Z,2.70
2023-03-10T16:06:39.793Z,3.10
2023-03-10T16:09:09.153Z,2.80
2023-03-10T16:11:36.344Z,2.40
2023-03-10T16:14:04.055Z,2.53
2023-03-10T16:16:31.171Z,2.50
2023-03-10T16:18:58.276Z,1.73
2023-03-10T16:21:25.444Z,1.40
2023-03-10T16:23:52.566Z,1.00
2023-03-10T16:26:21.700Z,1.10
2023-03-10T16:28:49.802Z,1.50
2023-03-10T16:31:18.124Z,1.03
2023-03-10T16:33:45.785Z,1.17
2023-03-10T16:36:14.333Z,1.03
2023-03-10T16:38:41.515Z,1.53
2023-03-10T16:41:09.398Z,1.30
2023-03-10T16:43:38.457Z,0.87
2023-03-10T16:46:09.303Z,1.20
2023-03-10T16:48:37.485Z,1.20
2023-03-10T16:51:17.683Z,1.40
2023-03-10T16:53:44.800Z,1.70
2023-03-10T16:56:11.853Z,1.47
2023-03-10T16:58:40.323Z,1.67
2023-03-10T17:01:07.532Z,1.73
2023-03-10T17:03:34.813Z,2.40
2023-03-10T17:06:01.894Z,1.50
2023-03-10T17:08:29.289Z,2.57
2023-03-10T17:10:56.375Z,1.90
2023-03-10T17:13:23.495Z,2.40
2023-03-10T17:15:51.925Z,2.77
2023-03-10T17:18:18.980Z,2.60
2023-03-10T17:20:46.161Z,2.70
2023-03-10T17:23:13.257Z,2.40
2023-03-10T17:25:42.166Z,3.07
2023-03-10T17:28:09.433Z,2.77
2023-03-10T17:30:38.888Z,3.00
2023-03-10T17:33:07.357Z,2.60
2023-03-10T17:35:36.060Z,2.83
2023-03-10T17:38:03.193Z,2.60
2023-03-10T17:40:30.277Z,2.90
2023-03-10T17:42:59.927Z,2.80
2023-03-10T17:45:35.510Z,2.90
2023-03-10T17:48:02.584Z,2.70
2023-03-10T17:50:31.053Z,3.37
2023-03-10T17:52:58.093Z,4.20
2023-03-10T17:55:25.388Z,3.10
2023-03-10T17:57:52.494Z,3.47
2023-03-10T18:00:20.153Z,4.10
2023-03-10T18:02:47.312Z,3.63
2023-03-10T18:05:14.476Z,4.70
2023-03-10T18:07:42.933Z,4.77
2023-03-10T18:10:10.614Z,6.27
2023-03-10T18:12:37.744Z,4.80
2023-03-10T18:15:05.076Z,3.90
2023-03-10T18:17:32.132Z,3.77
2023-03-10T18:19:59.643Z,5.40
2023-03-10T18:22:27.054Z,3.70
2023-03-10T18:24:55.591Z,3.53
2023-03-10T18:27:22.693Z,4.77
2023-03-10T18:29:49.732Z,3.53
2023-03-10T18:32:16.847Z,4.23
2023-03-10T18:34:43.979Z,3.53
2023-03-10T18:37:11.028Z,2.80
2023-03-10T18:39:40.933Z,3.90
2023-03-10T18:42:09.575Z,3.13
2023-03-10T18:44:36.673Z,3.10
2023-03-10T18:47:03.805Z,3.50
2023-03-10T18:49:30.899Z,3.13
2023-03-10T18:51:57.995Z,3.67
2023-03-10T18:54:25.067Z,3.10
2023-03-10T18:56:52.155Z,3.40
2023-03-10T18:59:20.574Z,4.30
2023-03-10T19:01:47.784Z,3.33
2023-03-10T19:04:15.010Z,4.03
2023-03-10T19:06:42.164Z,4.30
2023-03-10T19:09:09.478Z,2.50
2023-03-10T19:11:37.377Z,4.20
2023-03-10T19:14:04.619Z,3.17
2023-03-10T19:16:33.093Z,3.30
2023-03-10T19:19:00.197Z,3.00
2023-03-10T19:21:27.572Z,3.37
2023-03-10T19:23:54.677Z,3.07
2023-03-10T19:26:21.714Z,3.10
2023-03-10T19:28:48.815Z,3.33
2023-03-10T19:31:16.799Z,4.67
2023-03-10T19:33:45.496Z,3.80
2023-03-10T19:36:13.409Z,4.07
2023-03-10T19:38:41.421Z,3.40
2023-03-10T19:41:11.333Z,3.63
2023-03-10T19:43:38.412Z,4.43
2023-03-10T19:46:07.449Z,3.60
2023-03-10T19:48:34.741Z,3.40
2023-03-10T19:51:03.675Z,2.90
2023-03-10T19:53:30.788Z,2.83
2023-03-10T19:55:58.659Z,2.77
2023-03-10T19:58:26.260Z,3.30
2023-03-10T20:00:53.446Z,3.23
2023-03-10T20:03:20.653Z,3.10
2023-03-10T20:05:47.791Z,2.67
2023-03-10T20:08:16.226Z,3.67
2023-03-10T20:10:43.316Z,3.10
2023-03-10T20:13:10.441Z,3.50
2023-03-10T20:15:37.653Z,2.77
2023-03-10T20:18:04.981Z,2.70
2023-03-10T20:20:32.483Z,3.07
2023-03-10T20:22:59.630Z,3.27
2023-03-10T20:25:28.063Z,2.67
2023-03-10T20:27:55.376Z,2.90
2023-03-10T20:30:23.506Z,2.67
2023-03-10T20:32:51.085Z,2.93
2023-03-10T20:35:18.371Z,4.03
2023-03-10T20:37:45.463Z,2.40
2023-03-10T20:40:13.459Z,3.20
2023-03-10T20:42:42.203Z,3.70
2023-03-10T20:45:10.333Z,3.93
2023-03-10T20:47:37.468Z,4.03
2023-03-10T20:50:05.965Z,4.10
2023-03-10T20:52:33.956Z,5.47
2023-03-10T20:55:01.077Z,5.80
2023-03-10T20:57:28.524Z,5.10
2023-03-10T20:59:56.987Z,5.07
2023-03-10T21:02:24.245Z,4.80
2023-03-10T21:04:51.370Z,7.10
2023-03-10T21:07:18.444Z,6.60
2023-03-10T21:09:45.517Z,5.87
2023-03-10T21:12:12.622Z,5.33
2023-03-10T21:14:39.729Z,6.30
2023-03-10T21:17:08.216Z,8.00
2023-03-10T21:19:35.329Z,7.70
2023-03-10T21:22:03.504Z,7.37
2023-03-10T21:24:30.631Z,7.67
2023-03-10T21:26:57.758Z,5.40
2023-03-10T21:29:24.852Z,6.30
2023-03-10T21:31:51.913Z,6.53
2023-03-10T21:34:20.303Z,6.57
2023-03-10T21:36:47.358Z,6.80
2023-03-10T21:39:14.432Z,5.80
2023-03-10T21:41:41.548Z,6.40
2023-03-10T21:44:08.788Z,5.80
2023-03-10T21:46:35.950Z,5.40
2023-03-10T21:49:03.107Z,4.90
2023-03-10T21:51:33.754Z,4.40
2023-03-10T21:54:01.659Z,4.97
2023-03-10T21:56:28.814Z,4.50
2023-03-10T21:58:56.027Z,4.53
2023-03-10T22:01:23.841Z,3.33
2023-03-10T22:03:50.947Z,4.90
2023-03-10T22:06:18.025Z,5.00
2023-03-10T22:08:46.441Z,4.33
2023-03-10T22:11:13.572Z,5.10
2023-03-10T22:13:41.171Z,3.70
2023-03-10T22:16:09.155Z,3.50
2023-03-10T22:18:36.270Z,4.40
2023-03-10T22:21:03.375Z,5.20
2023-03-10T22:23:30.534Z,4.80
2023-03-10T22:25:58.943Z,4.37
2023-03-10T22:28:26.017Z,3.80
2023-03-10T22:30:53.118Z,2.83
2023-03-10T22:33:20.247Z,3.20
2023-03-10T22:35:47.368Z,3.30
2023-03-10T22:38:14.494Z,2.97
2023-03-10T22:40:41.554Z,3.53
2023-03-10T22:43:09.942Z,3.07
2023-03-10T22:45:37.069Z,2.77
2023-03-10T22:48:05.563Z,3.60
2023-03-10T22:50:33.705Z,2.50
2023-03-10T22:53:01.140Z,2.67
2023-03-10T22:55:28.541Z,2.93
2023-03-10T22:57:55.766Z,2.87
2023-03-10T23:00:24.247Z,2.90
2023-03-10T23:02:51.435Z,2.20
2023-03-10T23:05:18.686Z,2.17
2023-03-10T23:07:46.269Z,2.33
2023-03-10T23:10:16.164Z,2.57
2023-03-10T23:12:43.226Z,2.53
2023-03-10T23:15:24.075Z,2.73
2023-03-10T23:17:53.894Z,2.80
2023-03-10T23:20:21.251Z,2.77
2023-03-10T23:22:48.359Z,2.53
2023-03-10T23:25:16.964Z,2.10
2023-03-10T23:27:44.123Z,1.83
2023-03-10T23:30:11.843Z,2.40
2023-03-10T23:32:38.951Z,2.20
2023-03-10T23:35:07.956Z,2.50
2023-03-10T23:37:35.262Z,2.13
2023-03-10T23:40:02.394Z,2.90
2023-03-10T23:42:29.457Z,2.50
2023-03-10T23:44:56.501Z,2.90
2023-03-10T23:47:23.609Z,2.03
2023-03-10T23:49:50.687Z,2.67
2023-03-10T23:52:19.075Z,2.77
2023-03-10T23:54:46.168Z,2.63
2023-03-10T23:57:13.239Z,2.23
2023-03-10T23:59:40.319Z,3.13
